Forside
METAR-TAF:

METAR-TAF

Lufthavne :

Stanton, Minnesota, USA

Breddekreds: 44-28-32N, længdekreds: 093-00-59W, højde: 280 m

Aktuelle vejr

Denne rapport blev lavet for 19 minutter siden, kl. 22:15 UTC
Vind 10 kt fra nord
Temperatur 9°C
Fugtighed 66%
Tryk 1021 hPa
Sigt: 16.1 km
Spredte skyer i en højde af 3200 ft
Brudte skyer i en højde af 4200 ft
Overskyet i en højde af 4800 ft
let regn

METAR: KSYN 052215Z AUTO 36010KT 10SM -RA SCT032 BKN042 OVC048 09/03 A3016 RMK AO2 T00900026

Tid: 17:34 (22:34 UTC)


TAF: fraværende

Vejrobservationer og prognoser fra mere end 4000 lufthavne (METAR og TAF).

De gule og røde prikker repræsenterer de meteorologiske stationer.

Flyt musen over at se navnet på stationen.

Så klik over at se vejr observationer og prognoser.

At skifte det kort: Klik på de grønne knapper med et sort kors for at zoome ind; på den grønne knap med en bindestreg for at zoome ud; eller på de grønne pile for tilstødende kort.


METAR-TAF: